sensor_id;sensor_type;location;lat;lon;timestamp;P1;durP1;ratioP1;P2;durP2;ratioP2
46439;SDS011;32138;50.966;6.968;2022-12-07T00:00:17;25.40;;;18.92;;
46439;SDS011;32138;50.966;6.968;2022-12-07T00:01:20;23.70;;;18.15;;
46439;SDS011;32138;50.966;6.968;2022-12-07T00:02:23;21.45;;;17.15;;
46439;SDS011;32138;50.966;6.968;2022-12-07T00:03:24;22.75;;;16.70;;
46439;SDS011;32138;50.966;6.968;2022-12-07T00:04:25;22.77;;;18.55;;
46439;SDS011;32138;50.966;6.968;2022-12-07T00:05:26;26.85;;;20.10;;
46439;SDS011;32138;50.966;6.968;2022-12-07T00:06:26;20.77;;;16.70;;
46439;SDS011;32138;50.966;6.968;2022-12-07T00:07:27;23.02;;;17.27;;
46439;SDS011;32138;50.966;6.968;2022-12-07T00:08:28;23.33;;;18.83;;
46439;SDS011;32138;50.966;6.968;2022-12-07T00:09:31;20.95;;;17.75;;
46439;SDS011;32138;50.966;6.968;2022-12-07T00:10:33;24.15;;;17.73;;
46439;SDS011;32138;50.966;6.968;2022-12-07T00:11:34;23.67;;;17.77;;
46439;SDS011;32138;50.966;6.968;2022-12-07T00:12:35;21.13;;;18.17;;
46439;SDS011;32138;50.966;6.968;2022-12-07T00:13:36;22.17;;;17.08;;
46439;SDS011;32138;50.966;6.968;2022-12-07T00:14:37;22.33;;;17.23;;
46439;SDS011;32138;50.966;6.968;2022-12-07T00:15:38;18.33;;;16.42;;
46439;SDS011;32138;50.966;6.968;2022-12-07T00:16:39;20.38;;;16.77;;
46439;SDS011;32138;50.966;6.968;2022-12-07T00:17:40;19.55;;;16.25;;
46439;SDS011;32138;50.966;6.968;2022-12-07T00:18:41;21.65;;;18.08;;
46439;SDS011;32138;50.966;6.968;2022-12-07T00:19:43;20.25;;;17.50;;
46439;SDS011;32138;50.966;6.968;2022-12-07T00:20:43;23.25;;;18.38;;
46439;SDS011;32138;50.966;6.968;2022-12-07T00:21:44;23.00;;;18.05;;
46439;SDS011;32138;50.966;6.968;2022-12-07T00:22:45;20.20;;;16.88;;
46439;SDS011;32138;50.966;6.968;2022-12-07T00:23:46;20.65;;;16.58;;
46439;SDS011;32138;50.966;6.968;2022-12-07T00:24:49;23.65;;;17.58;;
46439;SDS011;32138;50.966;6.968;2022-12-07T00:25:49;21.55;;;16.92;;
46439;SDS011;32138;50.966;6.968;2022-12-07T00:26:50;21.42;;;17.67;;
46439;SDS011;32138;50.966;6.968;2022-12-07T00:27:54;22.60;;;17.58;;
46439;SDS011;32138;50.966;6.968;2022-12-07T00:28:57;21.65;;;18.23;;
46439;SDS011;32138;50.966;6.968;2022-12-07T00:30:22;23.90;;;17.27;;
46439;SDS011;32138;50.966;6.968;2022-12-07T00:31:29;20.27;;;17.30;;
46439;SDS011;32138;50.966;6.968;2022-12-07T00:32:38;19.15;;;16.17;;
46439;SDS011;32138;50.966;6.968;2022-12-07T00:33:39;20.25;;;15.65;;
46439;SDS011;32138;50.966;6.968;2022-12-07T00:34:40;21.23;;;16.80;;
46439;SDS011;32138;50.966;6.968;2022-12-07T00:35:40;24.48;;;17.17;;
46439;SDS011;32138;50.966;6.968;2022-12-07T00:36:41;20.35;;;16.55;;
46439;SDS011;32138;50.966;6.968;2022-12-07T00:37:42;21.52;;;16.50;;
46439;SDS011;32138;50.966;6.968;2022-12-07T00:38:46;19.35;;;16.33;;
46439;SDS011;32138;50.966;6.968;2022-12-07T00:39:47;22.05;;;16.38;;
46439;SDS011;32138;50.966;6.968;2022-12-07T00:40:57;22.23;;;16.75;;
46439;SDS011;32138;50.966;6.968;2022-12-07T00:42:00;21.05;;;16.65;;
46439;SDS011;32138;50.966;6.968;2022-12-07T00:43:01;19.77;;;15.70;;
46439;SDS011;32138;50.966;6.968;2022-12-07T00:44:05;24.77;;;17.52;;
46439;SDS011;32138;50.966;6.968;2022-12-07T00:45:06;22.65;;;18.08;;
46439;SDS011;32138;50.966;6.968;2022-12-07T00:46:07;27.00;;;18.90;;
46439;SDS011;32138;50.966;6.968;2022-12-07T00:47:12;22.20;;;16.95;;
46439;SDS011;32138;50.966;6.968;2022-12-07T00:48:12;21.00;;;15.98;;
46439;SDS011;32138;50.966;6.968;2022-12-07T00:49:13;22.55;;;17.40;;
46439;SDS011;32138;50.966;6.968;2022-12-07T00:50:14;23.23;;;17.17;;
46439;SDS011;32138;50.966;6.968;2022-12-07T00:51:15;22.80;;;18.00;;
46439;SDS011;32138;50.966;6.968;2022-12-07T00:52:20;24.98;;;18.58;;
46439;SDS011;32138;50.966;6.968;2022-12-07T00:53:20;23.42;;;16.83;;
46439;SDS011;32138;50.966;6.968;2022-12-07T00:54:21;22.08;;;16.73;;
46439;SDS011;32138;50.966;6.968;2022-12-07T00:55:22;19.42;;;16.10;;
46439;SDS011;32138;50.966;6.968;2022-12-07T00:56:24;20.80;;;16.73;;
46439;SDS011;32138;50.966;6.968;2022-12-07T00:57:27;21.35;;;16.70;;
46439;SDS011;32138;50.966;6.968;2022-12-07T00:58:29;23.67;;;16.67;;
46439;SDS011;32138;50.966;6.968;2022-12-07T00:59:29;22.42;;;17.05;;
46439;SDS011;32138;50.966;6.968;2022-12-07T01:00:30;20.83;;;17.33;;
46439;SDS011;32138;50.966;6.968;2022-12-07T01:01:36;21.90;;;16.15;;
46439;SDS011;32138;50.966;6.968;2022-12-07T01:02:37;21.38;;;19.00;;
46439;SDS011;32138;50.966;6.968;2022-12-07T01:03:40;21.10;;;17.40;;
46439;SDS011;32138;50.966;6.968;2022-12-07T01:04:41;18.92;;;16.38;;
46439;SDS011;32138;50.966;6.968;2022-12-07T01:05:51;22.13;;;17.17;;
46439;SDS011;32138;50.966;6.968;2022-12-07T01:06:54;22.63;;;17.67;;
46439;SDS011;32138;50.966;6.968;2022-12-07T01:07:55;20.65;;;16.08;;
46439;SDS011;32138;50.966;6.968;2022-12-07T01:08:56;20.20;;;16.35;;
46439;SDS011;32138;50.966;6.968;2022-12-07T01:09:57;22.52;;;18.15;;
46439;SDS011;32138;50.966;6.968;2022-12-07T01:11:05;22.92;;;17.85;;
46439;SDS011;32138;50.966;6.968;2022-12-07T01:12:08;18.85;;;16.23;;
46439;SDS011;32138;50.966;6.968;2022-12-07T01:13:08;21.52;;;16.65;;
46439;SDS011;32138;50.966;6.968;2022-12-07T01:14:09;21.73;;;18.10;;
46439;SDS011;32138;50.966;6.968;2022-12-07T01:15:10;20.15;;;17.08;;
46439;SDS011;32138;50.966;6.968;2022-12-07T01:16:12;25.60;;;18.23;;
46439;SDS011;32138;50.966;6.968;2022-12-07T01:17:15;20.27;;;16.27;;
46439;SDS011;32138;50.966;6.968;2022-12-07T01:18:16;25.30;;;18.42;;
46439;SDS011;32138;50.966;6.968;2022-12-07T01:19:16;25.63;;;18.73;;
46439;SDS011;32138;50.966;6.968;2022-12-07T01:20:17;20.75;;;17.45;;
46439;SDS011;32138;50.966;6.968;2022-12-07T01:21:19;19.98;;;16.60;;
46439;SDS011;32138;50.966;6.968;2022-12-07T01:22:23;19.92;;;17.60;;
46439;SDS011;32138;50.966;6.968;2022-12-07T01:23:24;24.98;;;17.77;;
46439;SDS011;32138;50.966;6.968;2022-12-07T01:24:24;21.63;;;18.42;;
46439;SDS011;32138;50.966;6.968;2022-12-07T01:25:25;19.80;;;17.58;;
46439;SDS011;32138;50.966;6.968;2022-12-07T01:26:26;20.55;;;16.35;;
46439;SDS011;32138;50.966;6.968;2022-12-07T01:27:28;25.58;;;18.80;;
46439;SDS011;32138;50.966;6.968;2022-12-07T01:28:29;22.73;;;18.52;;
46439;SDS011;32138;50.966;6.968;2022-12-07T01:29:30;24.10;;;18.50;;
46439;SDS011;32138;50.966;6.968;2022-12-07T01:30:30;24.60;;;17.58;;
46439;SDS011;32138;50.966;6.968;2022-12-07T01:31:31;23.25;;;17.20;;
46439;SDS011;32138;50.966;6.968;2022-12-07T01:32:32;24.85;;;18.45;;
46439;SDS011;32138;50.966;6.968;2022-12-07T01:33:34;22.60;;;18.17;;
46439;SDS011;32138;50.966;6.968;2022-12-07T01:34:36;22.13;;;18.95;;
46439;SDS011;32138;50.966;6.968;2022-12-07T01:35:37;22.13;;;17.73;;
46439;SDS011;32138;50.966;6.968;2022-12-07T01:36:38;24.02;;;17.55;;
46439;SDS011;32138;50.966;6.968;2022-12-07T01:37:38;24.20;;;18.63;;
46439;SDS011;32138;50.966;6.968;2022-12-07T01:38:39;22.10;;;19.70;;
46439;SDS011;32138;50.966;6.968;2022-12-07T01:39:40;25.08;;;18.73;;
46439;SDS011;32138;50.966;6.968;2022-12-07T01:40:41;24.52;;;19.27;;
46439;SDS011;32138;50.966;6.968;2022-12-07T01:41:42;25.92;;;19.83;;
46439;SDS011;32138;50.966;6.968;2022-12-07T01:42:43;25.65;;;19.77;;
46439;SDS011;32138;50.966;6.968;2022-12-07T01:45:36;24.95;;;18.05;;
46439;SDS011;32138;50.966;6.968;2022-12-07T01:46:40;24.50;;;18.92;;
46439;SDS011;32138;50.966;6.968;2022-12-07T01:47:52;22.88;;;20.20;;
46439;SDS011;32138;50.966;6.968;2022-12-07T01:48:55;28.95;;;20.40;;
46439;SDS011;32138;50.966;6.968;2022-12-07T01:49:56;25.30;;;20.52;;
46439;SDS011;32138;50.966;6.968;2022-12-07T01:50:59;26.17;;;19.45;;
46439;SDS011;32138;50.966;6.968;2022-12-07T01:53:21;23.98;;;19.75;;
46439;SDS011;32138;50.966;6.968;2022-12-07T01:54:28;24.08;;;19.85;;
46439;SDS011;32138;50.966;6.968;2022-12-07T01:55:28;23.98;;;19.90;;
46439;SDS011;32138;50.966;6.968;2022-12-07T01:56:30;25.45;;;20.17;;
46439;SDS011;32138;50.966;6.968;2022-12-07T01:57:32;24.92;;;19.15;;
46439;SDS011;32138;50.966;6.968;2022-12-07T01:58:36;22.23;;;19.23;;
46439;SDS011;32138;50.966;6.968;2022-12-07T01:59:37;22.52;;;19.70;;
46439;SDS011;32138;50.966;6.968;2022-12-07T02:00:38;26.27;;;20.13;;
46439;SDS011;32138;50.966;6.968;2022-12-07T02:01:40;26.85;;;20.75;;
46439;SDS011;32138;50.966;6.968;2022-12-07T02:02:46;21.75;;;19.02;;
46439;SDS011;32138;50.966;6.968;2022-12-07T02:04:05;25.35;;;21.17;;
46439;SDS011;32138;50.966;6.968;2022-12-07T02:05:06;29.15;;;21.77;;
46439;SDS011;32138;50.966;6.968;2022-12-07T02:06:08;28.42;;;21.10;;
46439;SDS011;32138;50.966;6.968;2022-12-07T02:07:12;22.83;;;20.33;;
46439;SDS011;32138;50.966;6.968;2022-12-07T02:08:13;24.55;;;20.63;;
46439;SDS011;32138;50.966;6.968;2022-12-07T02:09:14;28.52;;;23.10;;
46439;SDS011;32138;50.966;6.968;2022-12-07T02:10:16;27.58;;;21.50;;
46439;SDS011;32138;50.966;6.968;2022-12-07T02:11:23;22.92;;;19.20;;
46439;SDS011;32138;50.966;6.968;2022-12-07T02:12:23;23.92;;;21.13;;
46439;SDS011;32138;50.966;6.968;2022-12-07T02:13:26;27.42;;;21.60;;
46439;SDS011;32138;50.966;6.968;2022-12-07T02:14:32;26.98;;;20.52;;
46439;SDS011;32138;50.966;6.968;2022-12-07T02:15:39;28.52;;;22.65;;
46439;SDS011;32138;50.966;6.968;2022-12-07T02:17:12;26.42;;;21.65;;
46439;SDS011;32138;50.966;6.968;2022-12-07T02:19:53;28.95;;;21.25;;
46439;SDS011;32138;50.966;6.968;2022-12-07T02:22:46;25.95;;;21.30;;
46439;SDS011;32138;50.966;6.968;2022-12-07T02:27:50;25.92;;;20.92;;
46439;SDS011;32138;50.966;6.968;2022-12-07T02:29:11;26.10;;;20.23;;
46439;SDS011;32138;50.966;6.968;2022-12-07T02:30:18;22.90;;;18.83;;
46439;SDS011;32138;50.966;6.968;2022-12-07T02:31:20;25.70;;;20.85;;
46439;SDS011;32138;50.966;6.968;2022-12-07T02:34:09;23.27;;;20.75;;
46439;SDS011;32138;50.966;6.968;2022-12-07T02:36:39;26.67;;;21.05;;
46439;SDS011;32138;50.966;6.968;2022-12-07T02:39:07;23.75;;;18.98;;
46439;SDS011;32138;50.966;6.968;2022-12-07T02:41:58;24.50;;;20.00;;
46439;SDS011;32138;50.966;6.968;2022-12-07T02:43:10;22.77;;;18.55;;
46439;SDS011;32138;50.966;6.968;2022-12-07T02:44:32;24.52;;;19.92;;
46439;SDS011;32138;50.966;6.968;2022-12-07T02:45:34;24.40;;;19.65;;
46439;SDS011;32138;50.966;6.968;2022-12-07T02:46:43;29.05;;;20.60;;
46439;SDS011;32138;50.966;6.968;2022-12-07T02:47:51;22.60;;;19.00;;
46439;SDS011;32138;50.966;6.968;2022-12-07T02:48:53;25.58;;;19.63;;
46439;SDS011;32138;50.966;6.968;2022-12-07T02:49:55;23.60;;;19.70;;
46439;SDS011;32138;50.966;6.968;2022-12-07T02:50:55;25.27;;;20.45;;
46439;SDS011;32138;50.966;6.968;2022-12-07T02:51:56;23.65;;;19.30;;
46439;SDS011;32138;50.966;6.968;2022-12-07T02:52:57;25.40;;;19.85;;
46439;SDS011;32138;50.966;6.968;2022-12-07T02:53:58;24.50;;;20.45;;
46439;SDS011;32138;50.966;6.968;2022-12-07T02:54:59;22.13;;;19.20;;
46439;SDS011;32138;50.966;6.968;2022-12-07T02:57:13;25.70;;;18.33;;
46439;SDS011;32138;50.966;6.968;2022-12-07T03:00:17;25.33;;;19.08;;
46439;SDS011;32138;50.966;6.968;2022-12-07T03:01:23;23.00;;;19.65;;
46439;SDS011;32138;50.966;6.968;2022-12-07T03:04:05;21.25;;;18.48;;
46439;SDS011;32138;50.966;6.968;2022-12-07T03:07:10;22.40;;;19.13;;
46439;SDS011;32138;50.966;6.968;2022-12-07T03:09:43;25.58;;;19.75;;
46439;SDS011;32138;50.966;6.968;2022-12-07T03:14:10;22.10;;;18.83;;
46439;SDS011;32138;50.966;6.968;2022-12-07T03:16:37;27.27;;;20.63;;
46439;SDS011;32138;50.966;6.968;2022-12-07T03:17:47;28.60;;;20.80;;
46439;SDS011;32138;50.966;6.968;2022-12-07T03:19:06;25.88;;;21.38;;
46439;SDS011;32138;50.966;6.968;2022-12-07T03:20:13;24.73;;;20.55;;
46439;SDS011;32138;50.966;6.968;2022-12-07T03:21:19;25.27;;;21.00;;
46439;SDS011;32138;50.966;6.968;2022-12-07T03:22:24;30.13;;;21.10;;
46439;SDS011;32138;50.966;6.968;2022-12-07T03:23:29;26.73;;;21.45;;
46439;SDS011;32138;50.966;6.968;2022-12-07T03:24:35;25.15;;;22.02;;
46439;SDS011;32138;50.966;6.968;2022-12-07T03:25:49;27.63;;;21.48;;
46439;SDS011;32138;50.966;6.968;2022-12-07T03:27:01;26.05;;;21.17;;
46439;SDS011;32138;50.966;6.968;2022-12-07T03:28:07;24.70;;;20.90;;
46439;SDS011;32138;50.966;6.968;2022-12-07T03:29:12;26.35;;;20.98;;
46439;SDS011;32138;50.966;6.968;2022-12-07T03:30:26;24.33;;;20.10;;
46439;SDS011;32138;50.966;6.968;2022-12-07T03:31:33;35.22;;;29.67;;
46439;SDS011;32138;50.966;6.968;2022-12-07T03:32:41;33.58;;;26.45;;
46439;SDS011;32138;50.966;6.968;2022-12-07T03:33:57;32.08;;;24.00;;
46439;SDS011;32138;50.966;6.968;2022-12-07T03:36:22;28.05;;;21.40;;
46439;SDS011;32138;50.966;6.968;2022-12-07T03:37:42;25.33;;;21.10;;
46439;SDS011;32138;50.966;6.968;2022-12-07T03:38:48;27.98;;;21.95;;
46439;SDS011;32138;50.966;6.968;2022-12-07T03:41:05;27.10;;;20.92;;
46439;SDS011;32138;50.966;6.968;2022-12-07T03:42:17;25.73;;;21.88;;
46439;SDS011;32138;50.966;6.968;2022-12-07T03:43:18;27.00;;;22.42;;
46439;SDS011;32138;50.966;6.968;2022-12-07T03:44:20;25.48;;;21.13;;
46439;SDS011;32138;50.966;6.968;2022-12-07T03:45:23;27.67;;;22.95;;
46439;SDS011;32138;50.966;6.968;2022-12-07T03:46:49;35.30;;;23.45;;
46439;SDS011;32138;50.966;6.968;2022-12-07T03:49:25;29.42;;;24.98;;
46439;SDS011;32138;50.966;6.968;2022-12-07T03:50:46;26.10;;;22.38;;
46439;SDS011;32138;50.966;6.968;2022-12-07T03:51:55;32.85;;;24.40;;
46439;SDS011;32138;50.966;6.968;2022-12-07T03:53:18;26.25;;;20.65;;
46439;SDS011;32138;50.966;6.968;2022-12-07T03:54:30;28.65;;;22.75;;
46439;SDS011;32138;50.966;6.968;2022-12-07T03:55:43;25.55;;;21.60;;
46439;SDS011;32138;50.966;6.968;2022-12-07T03:56:46;31.40;;;20.98;;
46439;SDS011;32138;50.966;6.968;2022-12-07T03:57:49;30.80;;;23.50;;
46439;SDS011;32138;50.966;6.968;2022-12-07T03:58:55;29.15;;;24.15;;
46439;SDS011;32138;50.966;6.968;2022-12-07T03:59:56;26.67;;;22.15;;
46439;SDS011;32138;50.966;6.968;2022-12-07T04:00:57;28.88;;;22.00;;
46439;SDS011;32138;50.966;6.968;2022-12-07T04:02:01;23.70;;;21.15;;
46439;SDS011;32138;50.966;6.968;2022-12-07T04:03:05;26.02;;;21.40;;
46439;SDS011;32138;50.966;6.968;2022-12-07T04:04:05;27.65;;;21.92;;
46439;SDS011;32138;50.966;6.968;2022-12-07T04:05:06;26.42;;;21.05;;
46439;SDS011;32138;50.966;6.968;2022-12-07T04:06:08;29.52;;;23.17;;
46439;SDS011;32138;50.966;6.968;2022-12-07T04:07:09;28.38;;;22.10;;
46439;SDS011;32138;50.966;6.968;2022-12-07T04:08:10;29.48;;;22.40;;
46439;SDS011;32138;50.966;6.968;2022-12-07T04:09:11;26.60;;;23.05;;
46439;SDS011;32138;50.966;6.968;2022-12-07T04:10:14;23.45;;;20.90;;
46439;SDS011;32138;50.966;6.968;2022-12-07T04:11:15;32.55;;;22.70;;
46439;SDS011;32138;50.966;6.968;2022-12-07T04:12:15;27.90;;;23.20;;
46439;SDS011;32138;50.966;6.968;2022-12-07T04:13:16;26.67;;;23.45;;
46439;SDS011;32138;50.966;6.968;2022-12-07T04:14:17;28.52;;;23.65;;
46439;SDS011;32138;50.966;6.968;2022-12-07T04:15:18;26.95;;;22.65;;
46439;SDS011;32138;50.966;6.968;2022-12-07T04:16:18;26.35;;;23.10;;
46439;SDS011;32138;50.966;6.968;2022-12-07T04:17:19;29.20;;;21.92;;
46439;SDS011;32138;50.966;6.968;2022-12-07T04:18:20;25.40;;;22.23;;
46439;SDS011;32138;50.966;6.968;2022-12-07T04:19:22;27.10;;;21.88;;
46439;SDS011;32138;50.966;6.968;2022-12-07T04:20:28;23.38;;;20.88;;
46439;SDS011;32138;50.966;6.968;2022-12-07T04:21:28;28.70;;;21.73;;
46439;SDS011;32138;50.966;6.968;2022-12-07T04:22:29;24.48;;;19.70;;
46439;SDS011;32138;50.966;6.968;2022-12-07T04:23:30;23.23;;;20.42;;
46439;SDS011;32138;50.966;6.968;2022-12-07T04:24:31;25.17;;;20.35;;
46439;SDS011;32138;50.966;6.968;2022-12-07T04:25:32;26.20;;;20.45;;
46439;SDS011;32138;50.966;6.968;2022-12-07T04:26:33;26.33;;;21.52;;
46439;SDS011;32138;50.966;6.968;2022-12-07T04:27:34;27.58;;;21.05;;
46439;SDS011;32138;50.966;6.968;2022-12-07T04:28:35;27.35;;;22.00;;
46439;SDS011;32138;50.966;6.968;2022-12-07T04:29:35;25.95;;;21.13;;
46439;SDS011;32138;50.966;6.968;2022-12-07T04:30:36;29.80;;;22.92;;
46439;SDS011;32138;50.966;6.968;2022-12-07T04:31:37;25.10;;;21.13;;
46439;SDS011;32138;50.966;6.968;2022-12-07T04:32:38;24.77;;;21.10;;
46439;SDS011;32138;50.966;6.968;2022-12-07T04:33:39;25.67;;;22.70;;
46439;SDS011;32138;50.966;6.968;2022-12-07T04:34:39;28.73;;;23.50;;
46439;SDS011;32138;50.966;6.968;2022-12-07T04:35:42;27.08;;;20.98;;
46439;SDS011;32138;50.966;6.968;2022-12-07T04:36:43;25.42;;;21.70;;
46439;SDS011;32138;50.966;6.968;2022-12-07T04:37:45;27.05;;;21.92;;
46439;SDS011;32138;50.966;6.968;2022-12-07T04:38:46;24.95;;;21.95;;
46439;SDS011;32138;50.966;6.968;2022-12-07T04:39:47;28.70;;;23.60;;
46439;SDS011;32138;50.966;6.968;2022-12-07T04:40:47;25.90;;;22.15;;
46439;SDS011;32138;50.966;6.968;2022-12-07T04:41:48;28.73;;;22.17;;
46439;SDS011;32138;50.966;6.968;2022-12-07T04:42:49;28.75;;;23.25;;
46439;SDS011;32138;50.966;6.968;2022-12-07T04:43:50;27.52;;;22.77;;
46439;SDS011;32138;50.966;6.968;2022-12-07T04:44:50;27.67;;;21.05;;
46439;SDS011;32138;50.966;6.968;2022-12-07T04:45:51;29.65;;;22.27;;
46439;SDS011;32138;50.966;6.968;2022-12-07T04:46:52;25.05;;;20.77;;
46439;SDS011;32138;50.966;6.968;2022-12-07T04:47:54;27.02;;;20.52;;
46439;SDS011;32138;50.966;6.968;2022-12-07T04:48:55;32.53;;;22.70;;
46439;SDS011;32138;50.966;6.968;2022-12-07T04:49:56;24.67;;;21.58;;
46439;SDS011;32138;50.966;6.968;2022-12-07T04:50:57;27.70;;;22.75;;
46439;SDS011;32138;50.966;6.968;2022-12-07T04:51:58;24.52;;;20.80;;
46439;SDS011;32138;50.966;6.968;2022-12-07T04:52:59;28.17;;;21.40;;
46439;SDS011;32138;50.966;6.968;2022-12-07T04:53:59;30.40;;;23.70;;
46439;SDS011;32138;50.966;6.968;2022-12-07T04:55:00;29.38;;;21.60;;
46439;SDS011;32138;50.966;6.968;2022-12-07T04:56:01;25.80;;;21.90;;
46439;SDS011;32138;50.966;6.968;2022-12-07T04:57:02;27.17;;;21.33;;
46439;SDS011;32138;50.966;6.968;2022-12-07T04:58:02;27.15;;;21.95;;
46439;SDS011;32138;50.966;6.968;2022-12-07T04:59:03;25.67;;;21.48;;
46439;SDS011;32138;50.966;6.968;2022-12-07T05:00:05;24.30;;;21.45;;
46439;SDS011;32138;50.966;6.968;2022-12-07T05:01:06;25.90;;;21.27;;
46439;SDS011;32138;50.966;6.968;2022-12-07T05:02:07;27.35;;;21.95;;
46439;SDS011;32138;50.966;6.968;2022-12-07T05:03:08;27.88;;;22.92;;
46439;SDS011;32138;50.966;6.968;2022-12-07T05:04:09;32.08;;;21.70;;
46439;SDS011;32138;50.966;6.968;2022-12-07T05:05:10;25.27;;;21.67;;
46439;SDS011;32138;50.966;6.968;2022-12-07T05:06:11;29.23;;;21.75;;
46439;SDS011;32138;50.966;6.968;2022-12-07T05:07:13;26.73;;;22.95;;
46439;SDS011;32138;50.966;6.968;2022-12-07T05:08:14;22.38;;;19.98;;
46439;SDS011;32138;50.966;6.968;2022-12-07T05:09:14;25.95;;;21.20;;
46439;SDS011;32138;50.966;6.968;2022-12-07T05:10:15;27.48;;;21.20;;
46439;SDS011;32138;50.966;6.968;2022-12-07T05:11:16;27.42;;;20.95;;
46439;SDS011;32138;50.966;6.968;2022-12-07T05:12:36;27.83;;;22.17;;
46439;SDS011;32138;50.966;6.968;2022-12-07T05:13:36;27.90;;;21.27;;
46439;SDS011;32138;50.966;6.968;2022-12-07T05:14:37;28.98;;;22.15;;
46439;SDS011;32138;50.966;6.968;2022-12-07T05:15:38;26.23;;;20.40;;
46439;SDS011;32138;50.966;6.968;2022-12-07T05:16:39;26.67;;;21.55;;
46439;SDS011;32138;50.966;6.968;2022-12-07T05:17:41;28.58;;;21.88;;
46439;SDS011;32138;50.966;6.968;2022-12-07T05:18:42;27.08;;;21.75;;
46439;SDS011;32138;50.966;6.968;2022-12-07T05:19:42;28.10;;;21.85;;
46439;SDS011;32138;50.966;6.968;2022-12-07T05:20:43;26.98;;;22.70;;
46439;SDS011;32138;50.966;6.968;2022-12-07T05:21:45;26.85;;;22.40;;
46439;SDS011;32138;50.966;6.968;2022-12-07T05:22:46;28.63;;;21.42;;
46439;SDS011;32138;50.966;6.968;2022-12-07T05:23:47;26.23;;;21.42;;
46439;SDS011;32138;50.966;6.968;2022-12-07T05:24:47;25.13;;;20.85;;
46439;SDS011;32138;50.966;6.968;2022-12-07T05:25:48;25.73;;;22.00;;
46439;SDS011;32138;50.966;6.968;2022-12-07T05:26:49;26.27;;;21.23;;
46439;SDS011;32138;50.966;6.968;2022-12-07T05:27:50;30.15;;;22.30;;
46439;SDS011;32138;50.966;6.968;2022-12-07T05:28:51;28.70;;;23.00;;
46439;SDS011;32138;50.966;6.968;2022-12-07T05:29:53;26.60;;;21.67;;
46439;SDS011;32138;50.966;6.968;2022-12-07T05:30:54;26.77;;;21.67;;
46439;SDS011;32138;50.966;6.968;2022-12-07T05:31:55;29.27;;;21.50;;
46439;SDS011;32138;50.966;6.968;2022-12-07T05:32:56;26.52;;;21.35;;
46439;SDS011;32138;50.966;6.968;2022-12-07T05:33:56;30.63;;;23.10;;
46439;SDS011;32138;50.966;6.968;2022-12-07T05:34:57;25.83;;;21.75;;
46439;SDS011;32138;50.966;6.968;2022-12-07T05:35:58;27.60;;;20.15;;
46439;SDS011;32138;50.966;6.968;2022-12-07T05:36:59;26.02;;;21.60;;
46439;SDS011;32138;50.966;6.968;2022-12-07T05:37:59;25.15;;;21.17;;
46439;SDS011;32138;50.966;6.968;2022-12-07T05:39:00;28.15;;;21.98;;
46439;SDS011;32138;50.966;6.968;2022-12-07T05:40:01;28.88;;;23.17;;
46439;SDS011;32138;50.966;6.968;2022-12-07T05:41:02;25.67;;;22.20;;
46439;SDS011;32138;50.966;6.968;2022-12-07T05:42:05;26.08;;;21.63;;
46439;SDS011;32138;50.966;6.968;2022-12-07T05:43:11;24.83;;;20.92;;
46439;SDS011;32138;50.966;6.968;2022-12-07T05:44:12;25.23;;;21.58;;
46439;SDS011;32138;50.966;6.968;2022-12-07T05:45:13;24.90;;;19.73;;
46439;SDS011;32138;50.966;6.968;2022-12-07T05:46:14;24.75;;;20.95;;
46439;SDS011;32138;50.966;6.968;2022-12-07T05:47:15;26.60;;;21.35;;
46439;SDS011;32138;50.966;6.968;2022-12-07T05:48:16;27.77;;;20.85;;
46439;SDS011;32138;50.966;6.968;2022-12-07T05:49:17;25.67;;;19.75;;
46439;SDS011;32138;50.966;6.968;2022-12-07T05:50:18;23.13;;;20.00;;
46439;SDS011;32138;50.966;6.968;2022-12-07T05:51:18;23.92;;;20.15;;
46439;SDS011;32138;50.966;6.968;2022-12-07T05:52:19;24.65;;;21.25;;
46439;SDS011;32138;50.966;6.968;2022-12-07T05:53:20;23.33;;;19.50;;
46439;SDS011;32138;50.966;6.968;2022-12-07T05:54:21;25.70;;;19.60;;
46439;SDS011;32138;50.966;6.968;2022-12-07T05:55:22;43.05;;;31.38;;
46439;SDS011;32138;50.966;6.968;2022-12-07T05:56:23;34.95;;;28.65;;
46439;SDS011;32138;50.966;6.968;2022-12-07T05:57:24;29.40;;;23.95;;
46439;SDS011;32138;50.966;6.968;2022-12-07T05:58:25;24.65;;;21.45;;
46439;SDS011;32138;50.966;6.968;2022-12-07T05:59:44;20.80;;;18.58;;
46439;SDS011;32138;50.966;6.968;2022-12-07T06:00:44;28.52;;;18.58;;
46439;SDS011;32138;50.966;6.968;2022-12-07T06:01:45;23.90;;;18.27;;
46439;SDS011;32138;50.966;6.968;2022-12-07T06:02:46;20.88;;;17.15;;
46439;SDS011;32138;50.966;6.968;2022-12-07T06:03:47;20.83;;;16.60;;
46439;SDS011;32138;50.966;6.968;2022-12-07T06:04:47;20.17;;;17.92;;
46439;SDS011;32138;50.966;6.968;2022-12-07T06:05:48;20.80;;;16.25;;
46439;SDS011;32138;50.966;6.968;2022-12-07T06:06:49;21.80;;;17.50;;
46439;SDS011;32138;50.966;6.968;2022-12-07T06:07:50;22.00;;;18.02;;
46439;SDS011;32138;50.966;6.968;2022-12-07T06:08:51;20.48;;;16.75;;
46439;SDS011;32138;50.966;6.968;2022-12-07T06:09:52;19.13;;;15.65;;
46439;SDS011;32138;50.966;6.968;2022-12-07T06:10:53;24.33;;;18.75;;
46439;SDS011;32138;50.966;6.968;2022-12-07T06:12:13;92.75;;;74.22;;
46439;SDS011;32138;50.966;6.968;2022-12-07T06:13:32;67.78;;;51.25;;
46439;SDS011;32138;50.966;6.968;2022-12-07T06:14:33;86.75;;;65.00;;
46439;SDS011;32138;50.966;6.968;2022-12-07T06:15:36;38.05;;;29.77;;
46439;SDS011;32138;50.966;6.968;2022-12-07T06:16:37;25.83;;;20.38;;
46439;SDS011;32138;50.966;6.968;2022-12-07T06:17:38;22.67;;;17.88;;
46439;SDS011;32138;50.966;6.968;2022-12-07T06:18:39;23.52;;;17.30;;
46439;SDS011;32138;50.966;6.968;2022-12-07T06:19:40;22.27;;;16.38;;
46439;SDS011;32138;50.966;6.968;2022-12-07T06:20:41;24.10;;;17.08;;
46439;SDS011;32138;50.966;6.968;2022-12-07T06:21:42;21.90;;;17.15;;
46439;SDS011;32138;50.966;6.968;2022-12-07T06:22:43;21.50;;;18.45;;
46439;SDS011;32138;50.966;6.968;2022-12-07T06:23:43;21.73;;;16.30;;
46439;SDS011;32138;50.966;6.968;2022-12-07T06:24:44;24.23;;;17.73;;
46439;SDS011;32138;50.966;6.968;2022-12-07T06:25:45;22.98;;;17.10;;
46439;SDS011;32138;50.966;6.968;2022-12-07T06:26:46;19.90;;;16.25;;
46439;SDS011;32138;50.966;6.968;2022-12-07T06:27:47;21.35;;;18.25;;
46439;SDS011;32138;50.966;6.968;2022-12-07T06:28:47;22.75;;;18.02;;
46439;SDS011;32138;50.966;6.968;2022-12-07T06:29:48;21.15;;;18.15;;
46439;SDS011;32138;50.966;6.968;2022-12-07T06:30:56;21.88;;;17.58;;
46439;SDS011;32138;50.966;6.968;2022-12-07T06:32:01;25.80;;;18.85;;
46439;SDS011;32138;50.966;6.968;2022-12-07T06:33:02;20.70;;;16.63;;
46439;SDS011;32138;50.966;6.968;2022-12-07T06:34:07;25.58;;;18.75;;
46439;SDS011;32138;50.966;6.968;2022-12-07T06:35:15;22.70;;;17.73;;
46439;SDS011;32138;50.966;6.968;2022-12-07T06:36:15;21.00;;;17.10;;
46439;SDS011;32138;50.966;6.968;2022-12-07T06:37:16;25.17;;;17.92;;
46439;SDS011;32138;50.966;6.968;2022-12-07T06:38:17;23.55;;;19.23;;
46439;SDS011;32138;50.966;6.968;2022-12-07T06:39:18;22.73;;;18.20;;
46439;SDS011;32138;50.966;6.968;2022-12-07T06:40:20;22.80;;;17.30;;
46439;SDS011;32138;50.966;6.968;2022-12-07T06:41:21;25.75;;;19.05;;
46439;SDS011;32138;50.966;6.968;2022-12-07T06:42:22;24.65;;;19.30;;